createdAt,value
2022-08-12T00:00:12.214Z,33.22
2022-08-12T00:03:01.710Z,33.22
2022-08-12T00:06:01.851Z,33.22
2022-08-12T00:08:54.158Z,33.21
2022-08-12T00:11:44.177Z,33.21
2022-08-12T00:14:32.166Z,33.21
2022-08-12T00:17:21.200Z,33.20
2022-08-12T00:20:14.262Z,33.19
2022-08-12T00:23:03.065Z,33.19
2022-08-12T00:26:20.861Z,33.17
2022-08-12T00:29:08.483Z,33.16
2022-08-12T00:31:55.313Z,33.16
2022-08-12T00:34:42.550Z,33.15
2022-08-12T00:37:34.008Z,33.15
2022-08-12T00:40:23.364Z,33.15
2022-08-12T00:42:56.177Z,33.14
2022-08-12T00:45:27.030Z,33.16
2022-08-12T00:47:58.945Z,33.16
2022-08-12T00:50:33.704Z,33.16
2022-08-12T00:53:10.356Z,33.14
2022-08-12T00:55:48.546Z,33.14
2022-08-12T00:58:25.656Z,33.14
2022-08-12T01:01:02.458Z,33.12
2022-08-12T01:03:52.289Z,33.13
2022-08-12T01:06:43.000Z,33.13
2022-08-12T01:09:34.858Z,33.12
2022-08-12T01:12:08.981Z,33.12
2022-08-12T01:14:44.196Z,33.11
2022-08-12T01:17:15.772Z,33.13
2022-08-12T01:19:49.194Z,33.13
2022-08-12T01:22:28.473Z,33.13
2022-08-12T01:25:12.990Z,33.12
2022-08-12T01:27:44.898Z,33.12
2022-08-12T01:30:18.484Z,33.12
2022-08-12T01:32:54.482Z,33.12
2022-08-12T01:35:26.896Z,33.11
2022-08-12T01:38:05.515Z,33.11
2022-08-12T01:40:46.826Z,33.08
2022-08-12T01:43:25.742Z,33.03
2022-08-12T01:46:11.668Z,32.99
2022-08-12T01:49:10.149Z,32.96
2022-08-12T01:52:15.128Z,32.94
2022-08-12T01:54:44.090Z,32.92
2022-08-12T01:57:57.681Z,32.91
2022-08-12T02:00:35.508Z,32.90
2022-08-12T02:03:30.593Z,32.90
2022-08-12T02:06:33.215Z,32.89
2022-08-12T02:09:25.025Z,32.88
2022-08-12T02:12:16.376Z,32.87
2022-08-12T02:15:03.003Z,32.86
2022-08-12T02:18:00.249Z,32.86
2022-08-12T02:20:51.682Z,32.84
2022-08-12T02:23:29.265Z,32.82
2022-08-12T02:26:07.184Z,32.82
2022-08-12T02:28:40.023Z,32.80
2022-08-12T02:31:13.236Z,32.79
2022-08-12T02:33:47.334Z,32.78
2022-08-12T02:36:19.566Z,32.78
2022-08-12T02:38:55.478Z,32.77
2022-08-12T02:41:32.791Z,32.76
2022-08-12T02:44:11.086Z,32.75
2022-08-12T02:46:49.494Z,32.74
2022-08-12T02:49:34.617Z,32.73
2022-08-12T02:52:08.264Z,32.72
2022-08-12T02:54:41.471Z,32.71
2022-08-12T02:57:14.285Z,32.71
2022-08-12T02:59:46.710Z,32.72
2022-08-12T03:02:24.898Z,32.72
2022-08-12T03:05:01.472Z,32.71
2022-08-12T03:07:56.340Z,32.71
2022-08-12T03:10:37.758Z,32.69
2022-08-12T03:13:10.738Z,32.68
2022-08-12T03:15:42.367Z,32.68
2022-08-12T03:18:27.595Z,32.68
2022-08-12T03:21:00.779Z,32.67
2022-08-12T03:23:33.574Z,32.67
2022-08-12T03:26:07.403Z,32.66
2022-08-12T03:28:57.799Z,32.66
2022-08-12T03:31:32.941Z,32.64
2022-08-12T03:34:10.205Z,32.65
2022-08-12T03:36:44.007Z,32.61
2022-08-12T03:39:35.937Z,32.60
2022-08-12T03:42:35.874Z,32.57
2022-08-12T03:45:50.094Z,32.57
2022-08-12T03:48:41.307Z,32.55
2022-08-12T03:51:31.683Z,32.56
2022-08-12T03:54:19.934Z,32.55
2022-08-12T03:57:07.931Z,32.57
2022-08-12T03:59:54.830Z,32.58
2022-08-12T04:02:28.066Z,32.59
2022-08-12T04:04:59.542Z,32.61
2022-08-12T04:07:34.371Z,32.62
2022-08-12T04:10:06.026Z,32.64
2022-08-12T04:12:52.979Z,32.65
2022-08-12T04:15:26.516Z,32.64
2022-08-12T04:18:06.065Z,32.65
2022-08-12T04:20:39.268Z,32.66
2022-08-12T04:23:16.799Z,32.67
2022-08-12T04:25:47.351Z,32.70
2022-08-12T04:28:18.299Z,32.73
2022-08-12T04:30:48.578Z,32.74
2022-08-12T04:33:19.480Z,32.78
2022-08-12T04:35:50.350Z,32.80
2022-08-12T04:38:23.568Z,32.82
2022-08-12T04:40:54.476Z,32.83
2022-08-12T04:44:00.854Z,32.87
2022-08-12T04:46:22.855Z,32.90
2022-08-12T04:48:55.138Z,32.91
2022-08-12T04:51:30.735Z,32.92
2022-08-12T04:54:06.654Z,32.96
2022-08-12T04:56:37.925Z,32.99
2022-08-12T04:59:08.208Z,33.02
2022-08-12T05:01:39.089Z,33.04
2022-08-12T05:04:13.391Z,33.08
2022-08-12T05:06:43.629Z,33.10
2022-08-12T05:09:17.620Z,33.12
2022-08-12T05:11:53.897Z,33.15
2022-08-12T05:14:26.093Z,33.18
2022-08-12T05:16:57.587Z,33.23
2022-08-12T05:19:28.900Z,33.25
2022-08-12T05:21:59.708Z,33.30
2022-08-12T05:24:33.183Z,33.34
2022-08-12T05:27:04.729Z,33.40
2022-08-12T05:30:06.683Z,33.44
2022-08-12T05:32:26.781Z,33.48
2022-08-12T05:34:57.771Z,33.54
2022-08-12T05:37:29.020Z,33.58
2022-08-12T05:40:03.035Z,33.63
2022-08-12T05:42:35.560Z,33.69
2022-08-12T05:45:07.409Z,33.73
2022-08-12T05:47:52.655Z,33.81
2022-08-12T05:50:25.079Z,33.87
2022-08-12T05:52:56.002Z,33.92
2022-08-12T05:55:31.378Z,33.98
2022-08-12T05:58:03.634Z,34.00
2022-08-12T06:00:36.723Z,34.03
2022-08-12T06:03:08.857Z,34.05
2022-08-12T06:05:54.235Z,34.09
2022-08-12T06:08:38.611Z,34.12
2022-08-12T06:11:11.536Z,34.15
2022-08-12T06:13:54.303Z,34.17
2022-08-12T06:16:28.103Z,34.18
2022-08-12T06:18:58.975Z,34.20
2022-08-12T06:21:31.504Z,34.21
2022-08-12T06:24:02.451Z,34.23
2022-08-12T06:26:35.576Z,34.27
2022-08-12T06:29:06.776Z,34.33
2022-08-12T06:31:36.848Z,34.39
2022-08-12T06:35:26.456Z,34.49
2022-08-12T06:36:59.789Z,34.59
2022-08-12T06:39:31.474Z,34.67
2022-08-12T06:42:42.198Z,34.72
2022-08-12T06:45:14.147Z,34.73
2022-08-12T06:47:45.342Z,34.76
2022-08-12T06:50:18.920Z,34.79
2022-08-12T06:52:51.374Z,34.83
2022-08-12T06:55:26.337Z,34.90
2022-08-12T06:58:10.023Z,34.98
2022-08-12T07:00:44.113Z,35.02
2022-08-12T07:03:23.235Z,35.07
2022-08-12T07:05:55.263Z,35.13
2022-08-12T07:08:29.562Z,35.17
2022-08-12T07:11:02.279Z,35.21
2022-08-12T07:14:12.789Z,35.27
2022-08-12T07:16:49.675Z,35.29
2022-08-12T07:19:20.506Z,35.31
2022-08-12T07:22:01.698Z,35.32
2022-08-12T07:24:34.242Z,35.30
2022-08-12T07:27:05.380Z,35.34
2022-08-12T07:30:04.049Z,35.39
2022-08-12T07:32:29.557Z,35.41
2022-08-12T07:35:00.318Z,35.44
2022-08-12T07:37:31.702Z,35.44
2022-08-12T07:40:02.684Z,35.43
2022-08-12T07:42:34.616Z,35.43
2022-08-12T07:45:08.363Z,35.45
2022-08-12T07:47:40.463Z,35.47
2022-08-12T07:50:12.267Z,35.51
2022-08-12T07:52:45.845Z,35.56
2022-08-12T07:55:20.083Z,35.60
2022-08-12T07:57:59.795Z,35.66
2022-08-12T08:00:34.698Z,35.68
2022-08-12T08:03:05.699Z,35.71
2022-08-12T08:05:40.228Z,35.74
2022-08-12T08:08:18.709Z,35.74
2022-08-12T08:10:50.118Z,35.76
2022-08-12T08:13:19.855Z,35.78
2022-08-12T08:16:03.712Z,35.80
2022-08-12T08:18:34.492Z,35.83
2022-08-12T08:21:05.451Z,35.83
2022-08-12T08:23:58.136Z,35.84
2022-08-12T08:26:33.298Z,35.84
2022-08-12T08:29:03.492Z,35.88
2022-08-12T08:31:37.103Z,35.89
2022-08-12T08:34:47.152Z,35.92
2022-08-12T08:36:59.012Z,35.97
2022-08-12T08:39:35.176Z,35.97
2022-08-12T08:42:22.159Z,35.99
2022-08-12T08:44:57.771Z,36.04
2022-08-12T08:47:31.398Z,36.10
2022-08-12T08:50:03.790Z,36.13
2022-08-12T08:52:39.021Z,36.13
2022-08-12T08:55:14.944Z,36.15
2022-08-12T08:57:49.913Z,36.15
2022-08-12T09:00:23.717Z,36.16
2022-08-12T09:02:58.695Z,36.17
2022-08-12T09:05:43.207Z,36.18
2022-08-12T09:08:26.789Z,36.19
2022-08-12T09:12:06.517Z,36.20
2022-08-12T09:14:18.830Z,36.17
2022-08-12T09:16:50.911Z,36.17
2022-08-12T09:19:27.279Z,36.17
2022-08-12T09:22:00.407Z,36.18
2022-08-12T09:24:31.886Z,36.19
2022-08-12T09:27:03.142Z,36.20
2022-08-12T09:30:08.707Z,36.20
2022-08-12T09:32:56.074Z,36.22
2022-08-12T09:35:28.525Z,36.22
2022-08-12T09:38:01.980Z,36.25
2022-08-12T09:41:01.980Z,36.27
2022-08-12T09:43:47.076Z,36.26
2022-08-12T09:46:25.078Z,36.27
2022-08-12T09:48:57.304Z,36.29
2022-08-12T09:51:43.861Z,36.30
2022-08-12T09:54:33.234Z,36.31
2022-08-12T09:58:45.472Z,36.31
2022-08-12T10:00:16.439Z,36.32
2022-08-12T10:03:05.677Z,36.32
2022-08-12T10:06:19.604Z,36.30
2022-08-12T10:08:34.326Z,36.26
2022-08-12T10:11:27.391Z,36.28
2022-08-12T10:13:58.679Z,36.26
2022-08-12T10:16:38.572Z,36.25
2022-08-12T10:19:17.618Z,36.24
2022-08-12T10:21:49.187Z,36.23
2022-08-12T10:24:28.951Z,36.20
2022-08-12T10:27:15.923Z,36.21
2022-08-12T10:30:37.473Z,36.21
2022-08-12T10:32:42.839Z,36.19
2022-08-12T10:35:18.403Z,36.19
2022-08-12T10:38:35.714Z,36.22
2022-08-12T10:41:04.017Z,36.24
2022-08-12T10:43:55.311Z,36.25
2022-08-12T10:46:30.503Z,36.24
2022-08-12T10:49:06.587Z,36.27
2022-08-12T10:52:32.351Z,36.26
2022-08-12T10:54:49.260Z,36.25
2022-08-12T10:58:15.174Z,36.28
2022-08-12T11:00:33.843Z,36.27
2022-08-12T11:04:22.848Z,36.26
2022-08-12T11:07:09.837Z,36.24
2022-08-12T11:08:51.864Z,36.24
2022-08-12T11:11:27.794Z,36.24
2022-08-12T11:14:47.883Z,36.25
2022-08-12T11:17:34.898Z,36.27
2022-08-12T11:20:07.599Z,36.27
2022-08-12T11:22:38.247Z,36.29
2022-08-12T11:25:12.458Z,36.29
2022-08-12T11:27:43.361Z,36.29
2022-08-12T11:30:31.101Z,36.31
2022-08-12T11:33:02.731Z,36.28
2022-08-12T11:35:44.128Z,36.28
2022-08-12T11:38:15.250Z,36.29
2022-08-12T11:40:51.970Z,36.28
2022-08-12T11:43:22.756Z,36.27
2022-08-12T11:45:56.507Z,36.26
2022-08-12T11:48:27.699Z,36.24
2022-08-12T11:51:18.620Z,36.21
2022-08-12T11:53:59.035Z,36.21
2022-08-12T11:56:38.064Z,36.20
2022-08-12T12:02:05.192Z,36.15
2022-08-12T12:04:36.554Z,36.14
2022-08-12T12:07:11.532Z,36.15
2022-08-12T12:09:52.066Z,36.15
2022-08-12T12:12:26.282Z,36.16
2022-08-12T12:15:00.483Z,36.16
2022-08-12T12:17:42.971Z,36.15
2022-08-12T12:20:14.797Z,36.15
2022-08-12T12:22:45.762Z,36.14
2022-08-12T12:25:16.310Z,36.13
2022-08-12T12:28:04.437Z,36.12
2022-08-12T12:30:37.244Z,36.10
2022-08-12T12:33:17.722Z,36.09
2022-08-12T12:36:20.047Z,36.08
2022-08-12T12:38:39.908Z,36.07
2022-08-12T12:41:14.470Z,36.07
2022-08-12T12:44:04.193Z,36.03
2022-08-12T12:46:35.297Z,36.02
2022-08-12T12:49:10.956Z,36.01
2022-08-12T12:51:48.765Z,35.98
2022-08-12T12:54:24.431Z,35.93
2022-08-12T12:56:59.749Z,35.89
2022-08-12T12:59:55.349Z,35.85
2022-08-12T13:02:31.333Z,35.80
2022-08-12T13:05:13.861Z,35.77
2022-08-12T13:07:54.251Z,35.75
2022-08-12T13:10:32.152Z,35.73
2022-08-12T13:14:07.844Z,35.71
2022-08-12T13:16:02.842Z,35.70
2022-08-12T13:18:38.700Z,35.68
2022-08-12T13:21:32.730Z,35.67
2022-08-12T13:24:09.682Z,35.63
2022-08-12T13:26:41.705Z,35.61
2022-08-12T13:29:13.406Z,35.60
2022-08-12T13:32:19.204Z,35.59
2022-08-12T13:34:37.149Z,35.55
2022-08-12T13:37:10.162Z,35.54
2022-08-12T13:39:40.976Z,35.52
2022-08-12T13:42:14.401Z,35.49
2022-08-12T13:44:46.277Z,35.48
2022-08-12T13:47:19.857Z,35.47
2022-08-12T13:49:56.075Z,35.44
2022-08-12T13:52:28.580Z,35.43
2022-08-12T13:54:59.300Z,35.42
2022-08-12T13:57:46.978Z,35.39
2022-08-12T14:00:18.979Z,35.36
2022-08-12T14:02:53.270Z,35.34
2022-08-12T14:05:31.502Z,35.32
2022-08-12T14:08:14.670Z,35.29
2022-08-12T14:10:54.467Z,35.28
2022-08-12T14:14:05.386Z,35.23
2022-08-12T14:16:37.415Z,35.20
2022-08-12T14:19:22.366Z,35.18
2022-08-12T14:22:01.618Z,35.18
2022-08-12T14:24:41.139Z,35.17
2022-08-12T14:27:12.903Z,35.16
2022-08-12T14:30:05.768Z,35.14
2022-08-12T14:32:40.058Z,35.12
2022-08-12T14:35:11.660Z,35.11
2022-08-12T14:37:56.472Z,35.10
2022-08-12T14:40:32.069Z,35.08
2022-08-12T14:43:06.283Z,35.06
2022-08-12T14:45:48.952Z,35.03
2022-08-12T14:48:23.974Z,35.01
2022-08-12T14:52:38.730Z,35.00
2022-08-12T14:54:55.858Z,34.98
2022-08-12T14:57:19.851Z,34.97
2022-08-12T14:59:58.399Z,34.95
2022-08-12T15:02:30.179Z,34.95
2022-08-12T15:05:03.807Z,34.93
2022-08-12T15:07:50.200Z,34.93
2022-08-12T15:10:31.150Z,34.92
2022-08-12T15:13:08.180Z,34.92
2022-08-12T15:15:45.748Z,34.89
2022-08-12T15:18:22.989Z,34.86
2022-08-12T15:20:57.846Z,34.85
2022-08-12T15:23:54.778Z,34.84
2022-08-12T15:26:36.705Z,34.80
2022-08-12T15:29:11.863Z,34.77
2022-08-12T15:32:01.934Z,34.75
2022-08-12T15:34:37.105Z,34.72
2022-08-12T15:37:09.231Z,34.69
2022-08-12T15:39:40.013Z,34.67
2022-08-12T15:42:30.387Z,34.65
2022-08-12T15:45:02.853Z,34.65
2022-08-12T15:47:49.755Z,34.63
2022-08-12T15:50:23.363Z,34.62
2022-08-12T15:53:14.687Z,34.61
2022-08-12T15:55:46.798Z,34.58
2022-08-12T15:58:17.944Z,34.57
2022-08-12T16:00:54.320Z,34.55
2022-08-12T16:03:45.947Z,34.52
2022-08-12T16:06:31.163Z,34.49
2022-08-12T16:09:09.893Z,34.46
2022-08-12T16:11:43.439Z,34.44
2022-08-12T16:14:16.222Z,34.42
2022-08-12T16:16:49.188Z,34.40
2022-08-12T16:20:03.829Z,34.37
2022-08-12T16:22:11.615Z,34.33
2022-08-12T16:24:47.726Z,34.31
2022-08-12T16:27:24.138Z,34.27
2022-08-12T16:29:58.398Z,34.25
2022-08-12T16:32:34.484Z,34.25
2022-08-12T16:35:16.357Z,34.22
2022-08-12T16:38:25.447Z,34.20
2022-08-12T16:40:39.611Z,34.17
2022-08-12T16:43:30.774Z,34.14
2022-08-12T16:46:31.787Z,34.11
2022-08-12T16:48:59.577Z,34.09
2022-08-12T16:51:40.775Z,34.06
2022-08-12T16:54:17.227Z,34.05
2022-08-12T16:56:55.388Z,34.05
2022-08-12T16:59:54.724Z,34.05
2022-08-12T17:02:33.802Z,34.03
2022-08-12T17:05:16.227Z,34.04
2022-08-12T17:07:52.145Z,34.02
2022-08-12T17:10:36.152Z,34.02
2022-08-12T17:13:10.668Z,34.02
2022-08-12T17:15:57.351Z,34.01
2022-08-12T17:18:43.372Z,34.01
2022-08-12T17:21:20.259Z,34.00
2022-08-12T17:24:15.026Z,33.97
2022-08-12T17:26:49.629Z,33.96
2022-08-12T17:29:32.140Z,33.96
2022-08-12T17:32:14.708Z,33.92
2022-08-12T17:35:02.181Z,33.92
2022-08-12T17:37:35.575Z,33.91
2022-08-12T17:40:13.865Z,33.91
2022-08-12T17:42:49.176Z,33.90
2022-08-12T17:45:20.244Z,33.89
2022-08-12T17:48:00.967Z,33.88
2022-08-12T17:50:35.424Z,33.85
2022-08-12T17:53:10.953Z,33.86
2022-08-12T17:55:48.282Z,33.84
2022-08-12T17:58:37.567Z,33.84
2022-08-12T18:01:11.240Z,33.84
2022-08-12T18:04:05.698Z,33.84
2022-08-12T18:06:38.423Z,33.83
2022-08-12T18:09:10.966Z,33.83
2022-08-12T18:12:07.825Z,33.81
2022-08-12T18:14:41.130Z,33.79
2022-08-12T18:17:15.115Z,33.79
2022-08-12T18:20:06.994Z,33.78
2022-08-12T18:22:39.538Z,33.77
2022-08-12T18:26:15.416Z,33.77
2022-08-12T18:28:31.031Z,33.75
2022-08-12T18:31:04.039Z,33.76
2022-08-12T18:33:41.717Z,33.75
2022-08-12T18:36:22.742Z,33.73
2022-08-12T18:38:59.732Z,33.71
2022-08-12T18:41:36.325Z,33.70
2022-08-12T18:44:10.075Z,33.69
2022-08-12T18:46:55.718Z,33.69
2022-08-12T18:49:34.959Z,33.69
2022-08-12T18:52:11.838Z,33.68
2022-08-12T18:54:49.214Z,33.68
2022-08-12T18:58:07.619Z,33.68
2022-08-12T19:00:22.365Z,33.67
2022-08-12T19:02:54.335Z,33.68
2022-08-12T19:05:53.902Z,33.68
2022-08-12T19:08:18.565Z,33.67
2022-08-12T19:10:50.423Z,33.69
2022-08-12T19:13:43.689Z,33.68
2022-08-12T19:16:14.099Z,33.66
2022-08-12T19:18:47.035Z,33.65
2022-08-12T19:21:20.165Z,33.64
2022-08-12T19:24:14.375Z,33.64
2022-08-12T19:26:46.352Z,33.62
2022-08-12T19:29:30.077Z,33.62
2022-08-12T19:32:12.680Z,33.61
2022-08-12T19:36:00.885Z,33.63
2022-08-12T19:38:06.374Z,33.61
2022-08-12T19:40:37.339Z,33.60
2022-08-12T19:43:20.346Z,33.60
2022-08-12T19:45:57.277Z,33.61
2022-08-12T19:48:32.857Z,33.62
2022-08-12T19:51:08.980Z,33.61
2022-08-12T19:53:57.998Z,33.60
2022-08-12T19:56:29.908Z,33.60
2022-08-12T19:59:15.574Z,33.62
2022-08-12T20:02:03.242Z,33.60
2022-08-12T20:04:38.089Z,33.58
2022-08-12T20:07:23.067Z,33.59
2022-08-12T20:09:56.450Z,33.58
2022-08-12T20:12:32.635Z,33.57
2022-08-12T20:15:10.714Z,33.57
2022-08-12T20:17:50.394Z,33.58
2022-08-12T20:20:27.670Z,33.57
2022-08-12T20:22:59.356Z,33.57
2022-08-12T20:25:53.538Z,33.57
2022-08-12T20:28:20.104Z,33.57
2022-08-12T20:30:59.230Z,33.57
2022-08-12T20:33:56.462Z,33.57
2022-08-12T20:36:42.457Z,33.56
2022-08-12T20:39:33.986Z,33.55
2022-08-12T20:42:12.170Z,33.54
2022-08-12T20:44:45.490Z,33.52
2022-08-12T20:47:19.537Z,33.53
2022-08-12T20:49:55.700Z,33.53
2022-08-12T20:52:35.341Z,33.53
2022-08-12T20:55:15.778Z,33.51
2022-08-12T20:58:02.531Z,33.50
2022-08-12T21:00:35.972Z,33.49
2022-08-12T21:03:20.306Z,33.49
2022-08-12T21:06:13.278Z,33.48
2022-08-12T21:08:50.661Z,33.46
2022-08-12T21:11:25.130Z,33.44
2022-08-12T21:13:59.095Z,33.44
2022-08-12T21:16:35.791Z,33.43
2022-08-12T21:19:11.922Z,33.43
2022-08-12T21:21:58.808Z,33.42
2022-08-12T21:24:32.375Z,33.42
2022-08-12T21:27:07.388Z,33.43
2022-08-12T21:29:40.209Z,33.42
2022-08-12T21:32:39.389Z,33.41
2022-08-12T21:35:19.154Z,33.40
2022-08-12T21:37:54.575Z,33.40
2022-08-12T21:40:36.701Z,33.42
2022-08-12T21:43:09.894Z,33.42
2022-08-12T21:45:47.255Z,33.42
2022-08-12T21:48:31.308Z,33.42
2022-08-12T21:51:02.087Z,33.42
2022-08-12T21:54:07.848Z,33.41
2022-08-12T21:56:34.511Z,33.40
2022-08-12T21:59:13.596Z,33.41
2022-08-12T22:01:48.965Z,33.40
2022-08-12T22:04:37.142Z,33.39
2022-08-12T22:07:08.537Z,33.38
2022-08-12T22:09:42.664Z,33.39
2022-08-12T22:12:31.219Z,33.38
2022-08-12T22:15:02.254Z,33.37
2022-08-12T22:17:50.357Z,33.37
2022-08-12T22:20:29.738Z,33.36
2022-08-12T22:23:07.475Z,33.36
2022-08-12T22:25:41.400Z,33.35
2022-08-12T22:28:29.095Z,33.36
2022-08-12T22:31:15.155Z,33.35
2022-08-12T22:33:53.986Z,33.34
2022-08-12T22:36:29.140Z,33.33
2022-08-12T22:39:01.786Z,33.32
2022-08-12T22:41:56.811Z,33.32
2022-08-12T22:44:55.220Z,33.30
2022-08-12T22:47:55.784Z,33.28
2022-08-12T22:50:29.869Z,33.28
2022-08-12T22:53:15.720Z,33.28
2022-08-12T22:56:00.100Z,33.28
2022-08-12T22:58:41.428Z,33.26
2022-08-12T23:01:21.210Z,33.27
2022-08-12T23:03:53.772Z,33.26
2022-08-12T23:06:29.597Z,33.25
2022-08-12T23:09:00.468Z,33.25
2022-08-12T23:11:33.893Z,33.23
2022-08-12T23:14:14.649Z,33.22
2022-08-12T23:16:47.025Z,33.20
2022-08-12T23:19:23.166Z,33.20
2022-08-12T23:22:05.128Z,33.19
2022-08-12T23:24:53.765Z,33.17
2022-08-12T23:27:50.793Z,33.16
2022-08-12T23:30:31.964Z,33.15
2022-08-12T23:33:19.786Z,33.13
2022-08-12T23:36:03.642Z,33.13
2022-08-12T23:38:35.856Z,33.12
2022-08-12T23:41:13.406Z,33.13
2022-08-12T23:43:49.875Z,33.12
2022-08-12T23:46:26.301Z,33.13
2022-08-12T23:49:01.090Z,33.11
2022-08-12T23:51:32.320Z,33.12
2022-08-12T23:54:10.468Z,33.12
2022-08-12T23:57:10.776Z,33.09
2022-08-12T23:59:47.272Z,33.09
